Terminal Aerodrome Forecast
Issued by NWS

Home | Current Version | Previous Version | Text Only | Print | Product List | Glossary On
Versions: 1 2 3 4 5 6 7 8 9 10 11 12 13 14 15
561
FTUS45 KRIW 240520
TAFWRL
TAF
KWRL 240520Z 2406/2506 VRB05KT P6SM FEW120
     FM242300 VRB18G28KT P6SM VCTS SCT090CB
     FM250200 30011G18KT P6SM VCSH SCT060 BKN080
     FM250500 VRB06KT P6SM FEW060 BKN200=

USA.gov is the U.S. government's official web portal to all federal, state and local government web resources and services.